sensor_id;sensor_type;location;lat;lon;timestamp;pressure;altitude;pressure_sealevel;temperature;humidity
80566;BME280;69915;54.862;10.730;2023-11-19T00:00:34;100993.19;;;4.92;100.00
80566;BME280;69915;54.862;10.730;2023-11-19T00:03:00;100969.97;;;4.79;100.00
80566;BME280;69915;54.862;10.730;2023-11-19T00:05:27;100982.84;;;4.89;100.00
80566;BME280;69915;54.862;10.730;2023-11-19T00:07:53;100951.56;;;4.81;100.00
80566;BME280;69915;54.862;10.730;2023-11-19T00:10:19;100948.28;;;4.79;100.00
80566;BME280;69915;54.862;10.730;2023-11-19T00:12:47;100951.63;;;4.86;100.00
80566;BME280;69915;54.862;10.730;2023-11-19T00:15:13;100945.97;;;4.88;100.00
80566;BME280;69915;54.862;10.730;2023-11-19T00:17:43;100932.66;;;4.86;100.00
80566;BME280;69915;54.862;10.730;2023-11-19T00:20:13;100913.41;;;4.83;100.00
80566;BME280;69915;54.862;10.730;2023-11-19T00:22:40;100919.22;;;4.91;100.00
80566;BME280;69915;54.862;10.730;2023-11-19T00:25:08;100917.81;;;4.89;100.00
80566;BME280;69915;54.862;10.730;2023-11-19T00:27:33;100907.28;;;4.92;100.00
80566;BME280;69915;54.862;10.730;2023-11-19T00:29:59;100902.44;;;4.94;100.00
80566;BME280;69915;54.862;10.730;2023-11-19T00:32:25;100897.03;;;4.94;100.00
80566;BME280;69915;54.862;10.730;2023-11-19T00:34:50;100902.50;;;5.00;100.00
80566;BME280;69915;54.862;10.730;2023-11-19T00:37:16;100895.44;;;4.99;100.00
80566;BME280;69915;54.862;10.730;2023-11-19T00:39:42;100877.75;;;4.91;100.00
80566;BME280;69915;54.862;10.730;2023-11-19T00:42:09;100855.06;;;4.97;100.00
80566;BME280;69915;54.862;10.730;2023-11-19T00:44:36;100868.41;;;5.04;100.00
80566;BME280;69915;54.862;10.730;2023-11-19T00:47:01;100842.56;;;4.96;100.00
80566;BME280;69915;54.862;10.730;2023-11-19T00:49:27;100826.00;;;4.92;100.00
80566;BME280;69915;54.862;10.730;2023-11-19T00:51:52;100816.88;;;4.99;100.00
80566;BME280;69915;54.862;10.730;2023-11-19T00:54:18;100833.75;;;5.06;100.00
80566;BME280;69915;54.862;10.730;2023-11-19T00:56:43;100823.41;;;5.03;100.00
80566;BME280;69915;54.862;10.730;2023-11-19T00:59:10;100819.69;;;5.09;100.00
80566;BME280;69915;54.862;10.730;2023-11-19T01:01:35;100811.50;;;5.04;100.00
80566;BME280;69915;54.862;10.730;2023-11-19T01:04:01;100796.09;;;5.04;100.00
80566;BME280;69915;54.862;10.730;2023-11-19T01:06:30;100784.94;;;5.01;100.00
80566;BME280;69915;54.862;10.730;2023-11-19T01:08:56;100789.84;;;5.04;100.00
80566;BME280;69915;54.862;10.730;2023-11-19T01:11:25;100778.41;;;5.02;100.00
80566;BME280;69915;54.862;10.730;2023-11-19T01:13:51;100791.53;;;5.10;100.00
80566;BME280;69915;54.862;10.730;2023-11-19T01:16:17;100775.28;;;5.10;100.00
80566;BME280;69915;54.862;10.730;2023-11-19T01:18:44;100775.00;;;5.11;100.00
80566;BME280;69915;54.862;10.730;2023-11-19T01:21:10;100775.31;;;5.15;100.00
80566;BME280;69915;54.862;10.730;2023-11-19T01:23:35;100746.84;;;5.12;100.00
80566;BME280;69915;54.862;10.730;2023-11-19T01:26:02;100723.72;;;5.05;100.00
80566;BME280;69915;54.862;10.730;2023-11-19T01:28:28;100731.63;;;5.11;100.00
80566;BME280;69915;54.862;10.730;2023-11-19T01:30:54;100725.97;;;5.13;100.00
80566;BME280;69915;54.862;10.730;2023-11-19T01:33:19;100718.91;;;5.12;100.00
80566;BME280;69915;54.862;10.730;2023-11-19T01:35:44;100707.97;;;5.02;100.00
80566;BME280;69915;54.862;10.730;2023-11-19T01:38:10;100691.78;;;5.07;100.00
80566;BME280;69915;54.862;10.730;2023-11-19T01:40:36;100698.88;;;5.13;100.00
80566;BME280;69915;54.862;10.730;2023-11-19T01:43:03;100691.00;;;5.11;100.00
80566;BME280;69915;54.862;10.730;2023-11-19T01:45:30;100686.69;;;5.15;100.00
80566;BME280;69915;54.862;10.730;2023-11-19T01:47:57;100671.47;;;5.09;100.00
80566;BME280;69915;54.862;10.730;2023-11-19T01:50:24;100676.09;;;5.14;100.00
80566;BME280;69915;54.862;10.730;2023-11-19T01:52:54;100659.28;;;5.12;100.00
80566;BME280;69915;54.862;10.730;2023-11-19T01:55:20;100647.56;;;5.01;100.00
80566;BME280;69915;54.862;10.730;2023-11-19T01:57:48;100650.03;;;5.08;100.00
80566;BME280;69915;54.862;10.730;2023-11-19T02:00:15;100649.78;;;5.09;100.00
80566;BME280;69915;54.862;10.730;2023-11-19T02:02:42;100625.13;;;5.11;100.00
80566;BME280;69915;54.862;10.730;2023-11-19T02:05:09;100635.13;;;5.05;100.00
80566;BME280;69915;54.862;10.730;2023-11-19T02:07:35;100609.28;;;4.92;100.00
80566;BME280;69915;54.862;10.730;2023-11-19T02:10:01;100606.56;;;4.92;100.00
80566;BME280;69915;54.862;10.730;2023-11-19T02:12:31;100618.31;;;5.03;100.00
80566;BME280;69915;54.862;10.730;2023-11-19T02:14:59;100591.72;;;4.95;100.00
80566;BME280;69915;54.862;10.730;2023-11-19T02:17:34;100600.94;;;4.99;100.00
80566;BME280;69915;54.862;10.730;2023-11-19T02:20:06;100590.09;;;4.99;100.00
80566;BME280;69915;54.862;10.730;2023-11-19T02:22:35;100576.50;;;4.89;100.00
80566;BME280;69915;54.862;10.730;2023-11-19T02:25:04;100584.97;;;4.98;100.00
80566;BME280;69915;54.862;10.730;2023-11-19T02:30:11;100576.81;;;4.98;100.00
80566;BME280;69915;54.862;10.730;2023-11-19T02:32:37;100580.91;;;5.00;100.00
80566;BME280;69915;54.862;10.730;2023-11-19T02:35:06;100572.22;;;4.98;100.00
80566;BME280;69915;54.862;10.730;2023-11-19T02:37:34;100579.25;;;4.99;100.00
80566;BME280;69915;54.862;10.730;2023-11-19T02:39:59;100551.88;;;4.95;100.00
80566;BME280;69915;54.862;10.730;2023-11-19T02:42:35;100567.09;;;5.02;100.00
80566;BME280;69915;54.862;10.730;2023-11-19T02:45:01;100546.94;;;4.87;100.00
80566;BME280;69915;54.862;10.730;2023-11-19T02:47:27;100539.34;;;4.84;100.00
80566;BME280;69915;54.862;10.730;2023-11-19T02:49:55;100538.50;;;4.84;100.00
80566;BME280;69915;54.862;10.730;2023-11-19T02:52:21;100525.78;;;4.84;100.00
80566;BME280;69915;54.862;10.730;2023-11-19T02:54:46;100529.13;;;4.97;100.00
80566;BME280;69915;54.862;10.730;2023-11-19T02:57:12;100535.66;;;5.01;100.00
80566;BME280;69915;54.862;10.730;2023-11-19T02:59:40;100504.72;;;4.91;100.00
80566;BME280;69915;54.862;10.730;2023-11-19T03:02:08;100505.50;;;4.87;100.00
80566;BME280;69915;54.862;10.730;2023-11-19T03:04:37;100507.13;;;4.88;100.00
80566;BME280;69915;54.862;10.730;2023-11-19T03:07:07;100513.16;;;4.95;100.00
80566;BME280;69915;54.862;10.730;2023-11-19T03:09:33;100478.91;;;4.79;100.00
80566;BME280;69915;54.862;10.730;2023-11-19T03:12:00;100489.47;;;4.80;100.00
80566;BME280;69915;54.862;10.730;2023-11-19T03:14:26;100491.69;;;4.88;100.00
80566;BME280;69915;54.862;10.730;2023-11-19T03:16:51;100465.06;;;4.75;100.00
80566;BME280;69915;54.862;10.730;2023-11-19T03:19:17;100446.38;;;4.74;100.00
80566;BME280;69915;54.862;10.730;2023-11-19T03:21:42;100457.50;;;4.77;100.00
80566;BME280;69915;54.862;10.730;2023-11-19T03:24:07;100412.25;;;4.73;100.00
80566;BME280;69915;54.862;10.730;2023-11-19T03:26:34;100438.56;;;4.82;100.00
80566;BME280;69915;54.862;10.730;2023-11-19T03:28:59;100412.84;;;4.80;100.00
80566;BME280;69915;54.862;10.730;2023-11-19T03:31:25;100418.81;;;4.87;100.00
80566;BME280;69915;54.862;10.730;2023-11-19T03:33:51;100414.22;;;4.87;100.00
80566;BME280;69915;54.862;10.730;2023-11-19T03:36:16;100395.53;;;4.86;100.00
80566;BME280;69915;54.862;10.730;2023-11-19T03:38:42;100394.44;;;4.82;100.00
80566;BME280;69915;54.862;10.730;2023-11-19T03:41:14;100410.97;;;4.90;100.00
80566;BME280;69915;54.862;10.730;2023-11-19T03:43:40;100399.63;;;4.93;100.00
80566;BME280;69915;54.862;10.730;2023-11-19T03:46:19;100373.06;;;4.85;100.00
80566;BME280;69915;54.862;10.730;2023-11-19T03:48:49;100365.16;;;4.84;100.00
80566;BME280;69915;54.862;10.730;2023-11-19T03:51:15;100383.91;;;4.95;100.00
80566;BME280;69915;54.862;10.730;2023-11-19T03:56:48;100343.84;;;4.98;100.00
80566;BME280;69915;54.862;10.730;2023-11-19T03:59:14;100352.50;;;5.05;100.00
80566;BME280;69915;54.862;10.730;2023-11-19T04:01:41;100335.97;;;4.96;100.00
80566;BME280;69915;54.862;10.730;2023-11-19T04:04:06;100334.06;;;4.97;100.00
80566;BME280;69915;54.862;10.730;2023-11-19T04:06:32;100347.91;;;5.05;100.00
80566;BME280;69915;54.862;10.730;2023-11-19T04:08:57;100328.66;;;4.97;100.00
80566;BME280;69915;54.862;10.730;2023-11-19T04:11:23;100342.78;;;5.09;100.00
80566;BME280;69915;54.862;10.730;2023-11-19T04:13:48;100318.94;;;5.01;100.00
80566;BME280;69915;54.862;10.730;2023-11-19T04:16:14;100334.13;;;5.12;100.00
80566;BME280;69915;54.862;10.730;2023-11-19T04:18:40;100308.38;;;5.04;100.00
80566;BME280;69915;54.862;10.730;2023-11-19T04:21:08;100312.97;;;5.09;100.00
80566;BME280;69915;54.862;10.730;2023-11-19T04:23:33;100314.63;;;5.15;100.00
80566;BME280;69915;54.862;10.730;2023-11-19T04:26:02;100318.16;;;5.15;100.00
80566;BME280;69915;54.862;10.730;2023-11-19T04:28:28;100309.22;;;5.20;100.00
80566;BME280;69915;54.862;10.730;2023-11-19T04:30:53;100288.31;;;5.05;100.00
80566;BME280;69915;54.862;10.730;2023-11-19T04:33:18;100285.06;;;5.08;100.00
80566;BME280;69915;54.862;10.730;2023-11-19T04:35:44;100285.34;;;5.12;100.00
80566;BME280;69915;54.862;10.730;2023-11-19T04:38:09;100288.63;;;5.19;100.00
80566;BME280;69915;54.862;10.730;2023-11-19T04:40:35;100289.41;;;5.14;100.00
80566;BME280;69915;54.862;10.730;2023-11-19T04:43:01;100281.31;;;5.19;100.00
80566;BME280;69915;54.862;10.730;2023-11-19T04:45:26;100267.47;;;5.11;100.00
80566;BME280;69915;54.862;10.730;2023-11-19T04:47:51;100267.75;;;5.14;100.00
80566;BME280;69915;54.862;10.730;2023-11-19T04:50:17;100264.50;;;5.22;100.00
80566;BME280;69915;54.862;10.730;2023-11-19T04:52:43;100250.41;;;5.10;100.00
80566;BME280;69915;54.862;10.730;2023-11-19T04:55:10;100253.13;;;5.20;100.00
80566;BME280;69915;54.862;10.730;2023-11-19T04:57:37;100237.69;;;5.16;100.00
80566;BME280;69915;54.862;10.730;2023-11-19T05:00:04;100224.09;;;5.11;100.00
80566;BME280;69915;54.862;10.730;2023-11-19T05:02:30;100242.84;;;5.22;100.00
80566;BME280;69915;54.862;10.730;2023-11-19T05:04:56;100241.47;;;5.25;100.00
80566;BME280;69915;54.862;10.730;2023-11-19T05:07:22;100233.59;;;5.23;100.00
80566;BME280;69915;54.862;10.730;2023-11-19T05:09:47;100214.09;;;5.11;100.00
80566;BME280;69915;54.862;10.730;2023-11-19T05:12:12;100196.19;;;5.20;100.00
80566;BME280;69915;54.862;10.730;2023-11-19T05:14:38;100161.81;;;5.16;100.00
80566;BME280;69915;54.862;10.730;2023-11-19T05:17:04;100201.34;;;5.27;100.00
80566;BME280;69915;54.862;10.730;2023-11-19T05:19:29;100194.88;;;5.23;100.00
80566;BME280;69915;54.862;10.730;2023-11-19T05:21:55;100172.66;;;5.26;100.00
80566;BME280;69915;54.862;10.730;2023-11-19T05:24:20;100120.34;;;5.15;100.00
80566;BME280;69915;54.862;10.730;2023-11-19T05:26:46;100115.44;;;5.17;100.00
80566;BME280;69915;54.862;10.730;2023-11-19T05:29:12;100129.56;;;5.19;100.00
80566;BME280;69915;54.862;10.730;2023-11-19T05:31:37;100113.56;;;5.18;100.00
80566;BME280;69915;54.862;10.730;2023-11-19T05:34:03;100106.53;;;5.22;100.00
80566;BME280;69915;54.862;10.730;2023-11-19T05:36:29;100123.84;;;5.36;100.00
80566;BME280;69915;54.862;10.730;2023-11-19T05:38:55;100115.16;;;5.34;100.00
80566;BME280;69915;54.862;10.730;2023-11-19T05:41:20;100124.66;;;5.36;100.00
80566;BME280;69915;54.862;10.730;2023-11-19T05:43:46;100115.72;;;5.31;100.00
80566;BME280;69915;54.862;10.730;2023-11-19T05:46:11;100124.38;;;5.33;100.00
80566;BME280;69915;54.862;10.730;2023-11-19T05:48:38;100155.28;;;5.42;100.00
80566;BME280;69915;54.862;10.730;2023-11-19T05:51:04;100160.97;;;5.40;100.00
80566;BME280;69915;54.862;10.730;2023-11-19T05:53:31;100141.72;;;5.37;100.00
80566;BME280;69915;54.862;10.730;2023-11-19T05:55:57;100150.41;;;5.44;100.00
80566;BME280;69915;54.862;10.730;2023-11-19T05:58:26;100149.31;;;5.45;100.00
80566;BME280;69915;54.862;10.730;2023-11-19T06:00:56;100151.75;;;5.41;100.00
80566;BME280;69915;54.862;10.730;2023-11-19T06:03:22;100149.31;;;5.45;100.00
80566;BME280;69915;54.862;10.730;2023-11-19T06:05:48;100152.31;;;5.43;100.00
80566;BME280;69915;54.862;10.730;2023-11-19T06:08:14;100143.91;;;5.35;100.00
80566;BME280;69915;54.862;10.730;2023-11-19T06:10:41;100162.06;;;5.49;100.00
80566;BME280;69915;54.862;10.730;2023-11-19T06:13:06;100165.28;;;5.52;100.00
80566;BME280;69915;54.862;10.730;2023-11-19T06:15:35;100168.53;;;5.54;100.00
80566;BME280;69915;54.862;10.730;2023-11-19T06:18:01;66079.03;;;-142.69;100.00
80566;BME280;69915;54.862;10.730;2023-11-19T06:20:29;66079.03;;;-142.69;100.00
80566;BME280;69915;54.862;10.730;2023-11-19T06:23:53;66079.03;;;-142.69;100.00
80566;BME280;69915;54.862;10.730;2023-11-19T06:27:18;66079.03;;;-142.69;100.00
80566;BME280;69915;54.862;10.730;2023-11-19T06:30:43;66079.03;;;-142.69;100.00
80566;BME280;69915;54.862;10.730;2023-11-19T06:34:07;66079.03;;;-142.69;100.00
80566;BME280;69915;54.862;10.730;2023-11-19T06:37:31;66079.03;;;-142.69;100.00
80566;BME280;69915;54.862;10.730;2023-11-19T06:40:55;66079.03;;;-142.69;100.00
80566;BME280;69915;54.862;10.730;2023-11-19T06:44:19;66079.03;;;-142.69;100.00
80566;BME280;69915;54.862;10.730;2023-11-19T06:47:43;66079.03;;;-142.69;100.00
80566;BME280;69915;54.862;10.730;2023-11-19T06:51:07;66079.03;;;-142.69;100.00
80566;BME280;69915;54.862;10.730;2023-11-19T06:54:31;66079.03;;;-142.69;100.00
80566;BME280;69915;54.862;10.730;2023-11-19T06:57:55;66079.03;;;-142.69;100.00
80566;BME280;69915;54.862;10.730;2023-11-19T07:01:19;66079.03;;;-142.69;100.00
80566;BME280;69915;54.862;10.730;2023-11-19T07:04:43;66079.03;;;-142.69;100.00
80566;BME280;69915;54.862;10.730;2023-11-19T07:08:07;66079.03;;;-142.69;100.00
80566;BME280;69915;54.862;10.730;2023-11-19T07:11:31;66079.03;;;-142.69;100.00
80566;BME280;69915;54.862;10.730;2023-11-19T07:14:55;66079.03;;;-142.69;100.00
80566;BME280;69915;54.862;10.730;2023-11-19T07:18:19;66079.03;;;-142.69;100.00
80566;BME280;69915;54.862;10.730;2023-11-19T07:21:45;66079.03;;;-142.69;100.00
80566;BME280;69915;54.862;10.730;2023-11-19T07:25:10;66079.03;;;-142.69;100.00
80566;BME280;69915;54.862;10.730;2023-11-19T07:28:34;66079.03;;;-142.69;100.00
80566;BME280;69915;54.862;10.730;2023-11-19T07:31:58;66079.03;;;-142.69;100.00
80566;BME280;69915;54.862;10.730;2023-11-19T07:35:22;66079.03;;;-142.69;100.00
80566;BME280;69915;54.862;10.730;2023-11-19T07:38:46;66079.03;;;-142.69;100.00
80566;BME280;69915;54.862;10.730;2023-11-19T07:42:11;66079.03;;;-142.69;100.00
80566;BME280;69915;54.862;10.730;2023-11-19T07:45:35;66079.03;;;-142.69;100.00
80566;BME280;69915;54.862;10.730;2023-11-19T07:49:00;66079.03;;;-142.69;100.00
80566;BME280;69915;54.862;10.730;2023-11-19T07:52:26;66079.03;;;-142.69;100.00
80566;BME280;69915;54.862;10.730;2023-11-19T07:55:50;66079.03;;;-142.69;100.00
80566;BME280;69915;54.862;10.730;2023-11-19T07:59:14;66079.03;;;-142.69;100.00
80566;BME280;69915;54.862;10.730;2023-11-19T08:02:38;66079.03;;;-142.69;100.00
80566;BME280;69915;54.862;10.730;2023-11-19T08:06:03;66079.03;;;-142.69;100.00
80566;BME280;69915;54.862;10.730;2023-11-19T08:09:27;66079.03;;;-142.69;100.00
80566;BME280;69915;54.862;10.730;2023-11-19T08:12:51;66079.03;;;-142.69;100.00
80566;BME280;69915;54.862;10.730;2023-11-19T08:16:15;66079.03;;;-142.69;100.00
80566;BME280;69915;54.862;10.730;2023-11-19T08:19:40;66079.03;;;-142.69;100.00
80566;BME280;69915;54.862;10.730;2023-11-19T08:23:04;66079.03;;;-142.69;100.00
80566;BME280;69915;54.862;10.730;2023-11-19T08:26:28;66079.03;;;-142.69;100.00
80566;BME280;69915;54.862;10.730;2023-11-19T08:29:40;66079.03;;;-142.69;100.00
80566;BME280;69915;54.862;10.730;2023-11-19T08:33:04;66079.03;;;-142.69;100.00
80566;BME280;69915;54.862;10.730;2023-11-19T08:36:30;66079.03;;;-142.69;100.00
80566;BME280;69915;54.862;10.730;2023-11-19T08:39:55;66079.03;;;-142.69;100.00
80566;BME280;69915;54.862;10.730;2023-11-19T08:43:19;66079.03;;;-142.69;100.00
80566;BME280;69915;54.862;10.730;2023-11-19T08:46:49;66079.03;;;-142.69;100.00
80566;BME280;69915;54.862;10.730;2023-11-19T08:50:13;66079.03;;;-142.69;100.00
80566;BME280;69915;54.862;10.730;2023-11-19T08:53:37;66079.03;;;-142.69;100.00
80566;BME280;69915;54.862;10.730;2023-11-19T08:57:01;66079.03;;;-142.69;100.00
80566;BME280;69915;54.862;10.730;2023-11-19T09:00:26;66079.03;;;-142.69;100.00
80566;BME280;69915;54.862;10.730;2023-11-19T09:03:50;66079.03;;;-142.69;100.00
80566;BME280;69915;54.862;10.730;2023-11-19T09:07:14;66079.03;;;-142.69;100.00
80566;BME280;69915;54.862;10.730;2023-11-19T09:10:38;66079.03;;;-142.69;100.00
80566;BME280;69915;54.862;10.730;2023-11-19T09:14:02;66079.03;;;-142.69;100.00
80566;BME280;69915;54.862;10.730;2023-11-19T09:17:26;66079.03;;;-142.69;100.00
80566;BME280;69915;54.862;10.730;2023-11-19T09:20:50;66079.03;;;-142.69;100.00
80566;BME280;69915;54.862;10.730;2023-11-19T09:24:15;66079.03;;;-142.69;100.00
80566;BME280;69915;54.862;10.730;2023-11-19T09:27:39;66079.03;;;-142.69;100.00
80566;BME280;69915;54.862;10.730;2023-11-19T09:31:12;66079.03;;;-142.69;100.00
80566;BME280;69915;54.862;10.730;2023-11-19T09:34:36;66079.03;;;-142.69;100.00
80566;BME280;69915;54.862;10.730;2023-11-19T09:38:00;66079.03;;;-142.69;100.00
80566;BME280;69915;54.862;10.730;2023-11-19T09:41:24;66079.03;;;-142.69;100.00
80566;BME280;69915;54.862;10.730;2023-11-19T09:44:49;66079.03;;;-142.69;100.00
80566;BME280;69915;54.862;10.730;2023-11-19T09:48:18;66079.03;;;-142.69;100.00
80566;BME280;69915;54.862;10.730;2023-11-19T09:51:42;66079.03;;;-142.69;100.00
80566;BME280;69915;54.862;10.730;2023-11-19T09:55:06;66079.03;;;-142.69;100.00
80566;BME280;69915;54.862;10.730;2023-11-19T09:58:32;66079.03;;;-142.69;100.00
80566;BME280;69915;54.862;10.730;2023-11-19T10:01:57;66079.03;;;-142.69;100.00
80566;BME280;69915;54.862;10.730;2023-11-19T10:05:22;66079.03;;;-142.69;100.00
80566;BME280;69915;54.862;10.730;2023-11-19T10:08:47;66079.03;;;-142.69;100.00
80566;BME280;69915;54.862;10.730;2023-11-19T10:12:11;66079.03;;;-142.69;100.00
80566;BME280;69915;54.862;10.730;2023-11-19T10:15:36;66079.03;;;-142.69;100.00
80566;BME280;69915;54.862;10.730;2023-11-19T10:19:00;66079.03;;;-142.69;100.00
80566;BME280;69915;54.862;10.730;2023-11-19T10:22:24;66079.03;;;-142.69;100.00
80566;BME280;69915;54.862;10.730;2023-11-19T10:25:52;66079.03;;;-142.69;100.00
80566;BME280;69915;54.862;10.730;2023-11-19T10:29:16;66079.03;;;-142.69;100.00
80566;BME280;69915;54.862;10.730;2023-11-19T10:33:07;66079.03;;;-142.69;100.00
80566;BME280;69915;54.862;10.730;2023-11-19T10:36:48;66079.03;;;-142.69;100.00
80566;BME280;69915;54.862;10.730;2023-11-19T10:40:12;66079.03;;;-142.69;100.00
80566;BME280;69915;54.862;10.730;2023-11-19T10:43:43;66079.03;;;-142.69;100.00
80566;BME280;69915;54.862;10.730;2023-11-19T10:47:11;66079.03;;;-142.69;100.00
80566;BME280;69915;54.862;10.730;2023-11-19T10:50:37;66079.03;;;-142.69;100.00
80566;BME280;69915;54.862;10.730;2023-11-19T10:54:03;66079.03;;;-142.69;100.00
80566;BME280;69915;54.862;10.730;2023-11-19T10:57:30;66079.03;;;-142.69;100.00
80566;BME280;69915;54.862;10.730;2023-11-19T11:01:01;66079.03;;;-142.69;100.00
80566;BME280;69915;54.862;10.730;2023-11-19T11:04:28;66079.03;;;-142.69;100.00
80566;BME280;69915;54.862;10.730;2023-11-19T11:07:56;66079.03;;;-142.69;100.00
80566;BME280;69915;54.862;10.730;2023-11-19T11:11:24;66079.03;;;-142.69;100.00
80566;BME280;69915;54.862;10.730;2023-11-19T11:14:48;66079.03;;;-142.69;100.00
80566;BME280;69915;54.862;10.730;2023-11-19T11:18:16;66079.03;;;-142.69;100.00
80566;BME280;69915;54.862;10.730;2023-11-19T11:21:44;66079.03;;;-142.69;100.00
80566;BME280;69915;54.862;10.730;2023-11-19T11:40:27;66079.03;;;-142.69;100.00
80566;BME280;69915;54.862;10.730;2023-11-19T11:43:52;66079.03;;;-142.69;100.00
80566;BME280;69915;54.862;10.730;2023-11-19T11:51:06;66079.03;;;-142.69;100.00
80566;BME280;69915;54.862;10.730;2023-11-19T11:54:33;66079.03;;;-142.69;100.00
80566;BME280;69915;54.862;10.730;2023-11-19T11:58:02;66079.03;;;-142.69;100.00
80566;BME280;69915;54.862;10.730;2023-11-19T12:01:27;66079.03;;;-142.69;100.00
80566;BME280;69915;54.862;10.730;2023-11-19T12:04:56;66079.03;;;-142.69;100.00
80566;BME280;69915;54.862;10.730;2023-11-19T12:08:24;66079.03;;;-142.69;100.00
80566;BME280;69915;54.862;10.730;2023-11-19T12:11:49;66079.03;;;-142.69;100.00
80566;BME280;69915;54.862;10.730;2023-11-19T12:15:13;66079.03;;;-142.69;100.00
80566;BME280;69915;54.862;10.730;2023-11-19T12:18:42;66079.03;;;-142.69;100.00
80566;BME280;69915;54.862;10.730;2023-11-19T12:22:10;66079.03;;;-142.69;100.00
80566;BME280;69915;54.862;10.730;2023-11-19T12:25:34;66079.03;;;-142.69;100.00
80566;BME280;69915;54.862;10.730;2023-11-19T12:29:00;66079.03;;;-142.69;100.00
80566;BME280;69915;54.862;10.730;2023-11-19T12:32:24;66079.03;;;-142.69;100.00
80566;BME280;69915;54.862;10.730;2023-11-19T12:35:48;66079.03;;;-142.69;100.00
80566;BME280;69915;54.862;10.730;2023-11-19T12:39:22;66079.03;;;-142.69;100.00
80566;BME280;69915;54.862;10.730;2023-11-19T12:42:56;66079.03;;;-142.69;100.00
80566;BME280;69915;54.862;10.730;2023-11-19T12:46:22;66079.03;;;-142.69;100.00
80566;BME280;69915;54.862;10.730;2023-11-19T12:49:56;66079.03;;;-142.69;100.00
80566;BME280;69915;54.862;10.730;2023-11-19T12:53:20;66079.03;;;-142.69;100.00
80566;BME280;69915;54.862;10.730;2023-11-19T12:56:54;66079.03;;;-142.69;100.00
80566;BME280;69915;54.862;10.730;2023-11-19T13:00:18;66079.03;;;-142.69;100.00
80566;BME280;69915;54.862;10.730;2023-11-19T13:03:46;66079.03;;;-142.69;100.00
80566;BME280;69915;54.862;10.730;2023-11-19T13:07:12;66079.03;;;-142.69;100.00
80566;BME280;69915;54.862;10.730;2023-11-19T13:14:12;66079.03;;;-142.69;100.00
80566;BME280;69915;54.862;10.730;2023-11-19T13:17:37;66079.03;;;-142.69;100.00
80566;BME280;69915;54.862;10.730;2023-11-19T13:21:01;66079.03;;;-142.69;100.00
80566;BME280;69915;54.862;10.730;2023-11-19T13:23:46;66079.03;;;-142.69;100.00
80566;BME280;69915;54.862;10.730;2023-11-19T13:26:12;66079.03;;;-142.69;100.00
80566;BME280;69915;54.862;10.730;2023-11-19T13:28:38;66079.03;;;-142.69;100.00
80566;BME280;69915;54.862;10.730;2023-11-19T13:31:04;66079.03;;;-142.69;100.00
80566;BME280;69915;54.862;10.730;2023-11-19T13:33:29;66079.03;;;-142.69;100.00
80566;BME280;69915;54.862;10.730;2023-11-19T13:35:56;66079.03;;;-142.69;100.00
80566;BME280;69915;54.862;10.730;2023-11-19T13:38:22;66079.03;;;-142.69;100.00
80566;BME280;69915;54.862;10.730;2023-11-19T13:40:49;66079.03;;;-142.69;100.00
80566;BME280;69915;54.862;10.730;2023-11-19T13:43:15;66079.03;;;-142.69;100.00
80566;BME280;69915;54.862;10.730;2023-11-19T13:45:40;66079.03;;;-142.69;100.00
80566;BME280;69915;54.862;10.730;2023-11-19T13:48:06;66079.03;;;-142.69;100.00
80566;BME280;69915;54.862;10.730;2023-11-19T13:50:31;66079.03;;;-142.69;100.00
80566;BME280;69915;54.862;10.730;2023-11-19T13:52:57;66079.03;;;-142.69;100.00
80566;BME280;69915;54.862;10.730;2023-11-19T13:55:22;66079.03;;;-142.69;100.00
80566;BME280;69915;54.862;10.730;2023-11-19T13:57:48;66079.03;;;-142.69;100.00
80566;BME280;69915;54.862;10.730;2023-11-19T14:00:14;66079.03;;;-142.69;100.00
80566;BME280;69915;54.862;10.730;2023-11-19T14:02:44;66079.03;;;-142.69;100.00
80566;BME280;69915;54.862;10.730;2023-11-19T14:05:10;66079.03;;;-142.69;100.00
80566;BME280;69915;54.862;10.730;2023-11-19T14:07:39;66079.03;;;-142.69;100.00
80566;BME280;69915;54.862;10.730;2023-11-19T14:10:05;66079.03;;;-142.69;100.00
80566;BME280;69915;54.862;10.730;2023-11-19T14:12:32;66079.03;;;-142.69;100.00
80566;BME280;69915;54.862;10.730;2023-11-19T14:14:58;66079.03;;;-142.69;100.00
80566;BME280;69915;54.862;10.730;2023-11-19T14:17:25;66079.03;;;-142.69;100.00
80566;BME280;69915;54.862;10.730;2023-11-19T14:19:50;66079.03;;;-142.69;100.00
80566;BME280;69915;54.862;10.730;2023-11-19T14:22:16;66079.03;;;-142.69;100.00
80566;BME280;69915;54.862;10.730;2023-11-19T14:24:42;66079.03;;;-142.69;100.00
80566;BME280;69915;54.862;10.730;2023-11-19T14:27:11;66079.03;;;-142.69;100.00
80566;BME280;69915;54.862;10.730;2023-11-19T14:29:37;66079.03;;;-142.69;100.00
80566;BME280;69915;54.862;10.730;2023-11-19T14:32:03;66079.03;;;-142.69;100.00
80566;BME280;69915;54.862;10.730;2023-11-19T14:34:30;66079.03;;;-142.69;100.00
80566;BME280;69915;54.862;10.730;2023-11-19T14:36:56;66079.03;;;-142.69;100.00
80566;BME280;69915;54.862;10.730;2023-11-19T14:39:21;66079.03;;;-142.69;100.00
80566;BME280;69915;54.862;10.730;2023-11-19T14:41:47;66079.03;;;-142.69;100.00
80566;BME280;69915;54.862;10.730;2023-11-19T14:44:12;66079.03;;;-142.69;100.00
80566;BME280;69915;54.862;10.730;2023-11-19T14:46:38;66079.03;;;-142.69;100.00
80566;BME280;69915;54.862;10.730;2023-11-19T14:49:03;66079.03;;;-142.69;100.00